Time;durP1;ratioP1;P1;durP2;ratioP2;P2;SDS_P1;SDS_P2;PMS_P1;PMS_P2;Temp;Humidity;BMP_temperature;BMP_pressure;BME280_temperature;BME280_humidity;BME280_pressure;Samples;Min_cycle;Max_cycle;Signal;HPM_P1;HPM_P2
2022/12/12 00:02:25;;;;;;;;;;;;;;;18.13;48.78;99386.72;4998551;28;1144;-47
2022/12/12 00:04:50;;;;;;;;;;;;;;;17.52;49.72;99400.94;4998498;28;1203;-46
2022/12/12 00:07:15;;;;;;;;;;;;;;;17.21;48.45;99398.94;4998271;28;1236;-47
2022/12/12 00:09:41;;;;;;;;;;;;;;;16.91;47.37;99400.44;4998293;28;2270;-50
2022/12/12 00:12:07;;;;;;;;;;;;;;;16.81;46.78;99387.75;4998509;28;1216;-49
2022/12/12 00:14:32;;;;;;;;;;;;;;;16.68;45.89;99414.09;4998555;28;1152;-50
2022/12/12 00:16:58;;;;;;;;;;;;;;;17.61;48.11;99409.22;4998417;28;1192;-50
2022/12/12 00:19:23;;;;;;;;;;;;;;;16.98;48.15;99408.28;4997842;28;1117;-47
2022/12/12 00:21:49;;;;;;;;;;;;;;;16.77;47.13;99403.19;4997860;28;942;-49
2022/12/12 00:24:14;;;;;;;;;;;;;;;17.51;48.01;99420.50;4998322;28;1121;-48
2022/12/12 00:26:40;;;;;;;;;;;;;;;17.26;48.97;99430.97;4998100;28;1216;-49
2022/12/12 00:29:06;;;;;;;;;;;;;;;16.81;48.14;99437.16;4997603;28;1971;-50
2022/12/12 00:31:31;;;;;;;;;;;;;;;17.60;48.92;99435.13;4997947;28;1224;-49
2022/12/12 00:33:56;;;;;;;;;;;;;;;17.17;48.91;99432.84;4997606;28;942;-48
2022/12/12 00:36:23;;;;;;;;;;;;;;;16.86;47.45;99434.31;4997503;28;1184;-45
2022/12/12 00:38:48;;;;;;;;;;;;;;;16.70;46.67;99425.56;4997420;28;1121;-50
2022/12/12 00:41:14;;;;;;;;;;;;;;;17.42;48.37;99429.47;4998064;28;1212;-49
2022/12/12 00:43:39;;;;;;;;;;;;;;;16.88;48.00;99431.25;4998117;28;1117;-50
2022/12/12 00:46:05;;;;;;;;;;;;;;;16.74;46.93;99437.56;4997314;28;942;-46
2022/12/12 00:48:30;;;;;;;;;;;;;;;16.57;46.09;99431.91;4997515;28;1129;-47
2022/12/12 00:50:56;;;;;;;;;;;;;;;17.52;47.94;99427.63;4997391;28;1973;-48
2022/12/12 00:53:21;;;;;;;;;;;;;;;16.87;47.98;99449.66;4997599;28;1172;-48
2022/12/12 00:55:56;;;;;;;;;;;;;;;17.76;48.40;99454.78;4997867;28;1156;-47
2022/12/12 00:58:21;;;;;;;;;;;;;;;17.30;49.09;99453.94;4996725;28;962;-50
2022/12/12 01:00:47;;;;;;;;;;;;;;;16.88;48.09;99458.72;4997014;28;1188;-50
2022/12/12 01:03:12;;;;;;;;;;;;;;;16.71;47.19;99460.16;4997408;28;1159;-48
2022/12/12 01:05:38;;;;;;;;;;;;;;;17.50;47.90;99454.59;4997243;28;1211;-49
2022/12/12 01:08:03;;;;;;;;;;;;;;;16.83;48.13;99461.56;4997180;28;1227;-48
2022/12/12 01:10:28;;;;;;;;;;;;;;;16.92;47.35;99465.25;4996775;28;1914;-51
2022/12/12 01:12:54;;;;;;;;;;;;;;;17.16;48.30;99480.66;4997260;28;1211;-50
2022/12/12 01:15:20;;;;;;;;;;;;;;;16.82;47.52;99484.66;4997017;28;1177;-49
2022/12/12 01:17:45;;;;;;;;;;;;;;;16.62;46.48;99491.34;4997218;28;1200;-50
2022/12/12 01:20:29;;;;;;;;;;;;;;;16.76;46.47;99503.16;4996635;28;1212;-49
2022/12/12 01:22:55;;;;;;;;;;;;;;;16.82;47.74;99498.38;4984007;28;1121;-49
2022/12/12 01:25:21;;;;;;;;;;;;;;;17.61;48.01;99502.69;4997562;28;1140;-49
2022/12/12 01:27:46;;;;;;;;;;;;;;;18.32;48.14;99493.78;4996619;28;1223;-48
2022/12/12 01:30:12;;;;;;;;;;;;;;;17.34;49.02;99509.91;4996563;28;1977;-47
2022/12/12 01:32:38;;;;;;;;;;;;;;;16.95;47.82;99496.78;4996998;28;1144;-49
2022/12/12 01:35:07;;;;;;;;;;;;;;;17.47;48.86;99490.94;4996612;28;1219;-46
2022/12/12 01:37:35;;;;;;;;;;;;;;;17.00;48.58;99489.22;4996921;28;1196;-49
2022/12/12 01:40:00;;;;;;;;;;;;;;;16.79;47.40;99490.72;4996768;28;1231;-50
2022/12/12 01:42:26;;;;;;;;;;;;;;;16.83;47.83;99505.47;4996568;28;1109;-46
2022/12/12 01:44:52;;;;;;;;;;;;;;;17.23;48.16;99514.00;4979473;28;1141;-48
2022/12/12 01:47:18;;;;;;;;;;;;;;;17.13;48.39;99519.72;4997563;28;1125;-49
2022/12/12 01:49:51;;;;;;;;;;;;;;;18.57;47.85;99519.00;4999590;28;1910;-48
2022/12/12 01:52:18;;;;;;;;;;;;;;;17.40;49.13;99525.16;5000954;28;1155;-47
2022/12/12 01:54:44;;;;;;;;;;;;;;;16.98;48.23;99529.91;4983614;28;1283;-49
2022/12/12 01:57:12;;;;;;;;;;;;;;;16.88;47.13;99524.59;4982521;28;1682;-47
2022/12/12 01:59:37;;;;;;;;;;;;;;;17.01;47.35;99547.69;4998976;28;1122;-49
2022/12/12 02:02:03;;;;;;;;;;;;;;;17.09;47.98;99530.50;4983487;28;1153;-48
2022/12/12 02:04:28;;;;;;;;;;;;;;;17.52;48.45;99540.31;4983371;28;1220;-51
2022/12/12 02:06:54;;;;;;;;;;;;;;;18.54;48.37;99527.91;4983364;28;1223;-46
2022/12/12 02:09:19;;;;;;;;;;;;;;;17.44;49.00;99534.38;5000065;28;1894;-49
2022/12/12 02:11:47;;;;;;;;;;;;;;;17.08;47.98;99540.69;4982892;28;1164;-46
2022/12/12 02:14:17;;;;;;;;;;;;;;;16.91;47.13;99540.47;5000443;28;1317;-47
2022/12/12 02:16:49;;;;;;;;;;;;;;;17.43;48.34;99552.03;4983275;28;1156;-49
2022/12/12 02:19:33;;;;;;;;;;;;;;;17.04;48.25;99555.31;5000126;28;1212;-46
2022/12/12 02:22:11;;;;;;;;;;;;;;;18.39;48.55;99551.13;5000159;28;1231;-49
2022/12/12 02:25:00;;;;;;;;;;;;;;;18.03;49.22;99558.34;4986761;28;1070;-46
2022/12/12 02:27:28;;;;;;;;;;;;;;;17.37;48.41;99564.22;4992044;28;1566;-50
2022/12/12 02:29:57;;;;;;;;;;;;;;;16.96;47.84;99570.59;5000299;28;1981;-47
2022/12/12 02:32:28;;;;;;;;;;;;;;;16.91;46.62;99565.19;4999940;28;1169;-51
2022/12/12 02:35:03;;;;;;;;;;;;;;;17.08;47.13;99568.16;4997785;28;855;-48
2022/12/12 02:37:35;;;;;;;;;;;;;;;17.18;47.79;99571.78;4999794;28;1259;-47
2022/12/12 02:40:02;;;;;;;;;;;;;;;16.83;47.16;99565.88;5000355;28;1153;-48
2022/12/12 02:42:45;;;;;;;;;;;;;;;17.49;48.01;99566.47;4982567;28;1232;-48
2022/12/12 02:45:22;;;;;;;;;;;;;;;17.12;48.02;99568.34;4982231;28;1109;-46
2022/12/12 02:47:52;;;;;;;;;;;;;;;16.87;47.00;99558.66;5000193;28;1155;-46
2022/12/12 02:50:21;;;;;;;;;;;;;;;17.21;47.74;99560.22;4982480;28;1969;-48
2022/12/12 02:52:47;;;;;;;;;;;;;;;17.23;48.17;99563.44;4982362;28;1204;-45
2022/12/12 02:55:13;;;;;;;;;;;;;;;16.81;47.71;99555.19;4999586;28;1265;-47
2022/12/12 02:57:40;;;;;;;;;;;;;;;16.92;47.16;99553.09;4997658;28;1128;-46
2022/12/12 03:00:07;;;;;;;;;;;;;;;17.18;48.00;99552.56;4981770;28;1161;-46
2022/12/12 03:02:32;;;;;;;;;;;;;;;16.82;47.54;99559.59;4999203;28;1200;-49
2022/12/12 03:08:10;;;;;;;;;;;;;;;17.17;48.19;99562.75;4984721;28;1192;-46
2022/12/12 03:10:45;;;;;;;;;;;;;;;16.69;47.48;99576.84;4998699;28;2028;-45
2022/12/12 03:13:22;;;;;;;;;;;;;;;16.61;46.42;99581.13;4999017;28;1168;-48
2022/12/12 03:15:47;;;;;;;;;;;;;;;17.46;47.60;99597.31;4981968;28;1216;-47
2022/12/12 03:18:21;;;;;;;;;;;;;;;16.85;47.64;99604.84;4999333;28;1251;-47
2022/12/12 03:20:48;;;;;;;;;;;;;;;16.64;46.91;99602.47;4999419;28;1247;-45
2022/12/12 03:23:14;;;;;;;;;;;;;;;17.77;47.96;99602.94;4998405;28;993;-48
2022/12/12 03:25:55;;;;;;;;;;;;;;;17.02;48.03;99602.31;4981818;28;1282;-47
2022/12/12 03:28:20;;;;;;;;;;;;;;;16.70;47.13;99601.25;4999514;28;1168;-45
2022/12/12 03:30:47;;;;;;;;;;;;;;;17.51;47.50;99601.88;4999052;28;1906;-46
2022/12/12 03:33:15;;;;;;;;;;;;;;;16.84;47.80;99598.50;4998796;28;1180;-47
2022/12/12 03:36:00;;;;;;;;;;;;;;;17.30;47.84;99613.28;4981468;28;1145;-45
2022/12/12 03:38:29;;;;;;;;;;;;;;;17.33;48.53;99618.19;4987279;28;1141;-47
2022/12/12 03:40:57;;;;;;;;;;;;;;;16.89;47.53;99614.13;4981728;28;1113;-48
2022/12/12 03:43:26;;;;;;;;;;;;;;;16.72;46.59;99615.50;4982071;28;1227;-47
2022/12/12 03:45:56;;;;;;;;;;;;;;;17.54;47.50;99610.31;4980892;28;1157;-49
2022/12/12 03:48:35;;;;;;;;;;;;;;;16.79;47.67;99604.13;4981448;28;1197;-50
2022/12/12 03:51:04;;;;;;;;;;;;;;;16.68;46.89;99608.19;4999077;28;1906;-48
2022/12/12 03:53:35;;;;;;;;;;;;;;;17.63;47.55;99610.41;4981293;28;1220;-48
2022/12/12 03:56:00;;;;;;;;;;;;;;;16.88;47.60;99634.44;4998140;28;1140;-46
2022/12/12 03:58:27;;;;;;;;;;;;;;;17.27;48.19;99633.16;4997885;28;1156;-49
2022/12/12 04:00:53;;;;;;;;;;;;;;;17.19;48.39;99642.09;4997503;28;1138;-48
2022/12/12 04:03:32;;;;;;;;;;;;;;;17.21;48.13;99648.91;4981471;28;1066;-50
2022/12/12 04:12:57;;;;;;;;;;;;;;;17.21;48.65;99659.91;4998442;28;1156;-47
2022/12/12 04:14:27;;;;;;;;;;;;;;;16.80;46.22;99663.38;5001848;28;2464;-53
2022/12/12 04:16:59;;;;;;;;;;;;;;;17.41;47.63;99672.41;4974289;28;1988;-54
2022/12/12 04:25:09;;;;;;;;;;;;;;;17.12;47.08;99658.97;4977315;28;2473;-57
2022/12/12 04:27:38;;;;;;;;;;;;;;;16.83;47.74;99654.56;4980369;28;1873;-53
2022/12/12 04:30:07;;;;;;;;;;;;;;;17.69;48.15;99655.91;4997549;28;2117;-54
2022/12/12 04:32:34;;;;;;;;;;;;;;;18.00;48.38;99663.50;4997078;28;1148;-49
2022/12/12 04:35:02;;;;;;;;;;;;;;;17.24;48.58;99664.78;4979603;28;890;-55
2022/12/12 04:37:32;;;;;;;;;;;;;;;16.92;47.48;99668.44;4996890;28;1466;-53
2022/12/12 04:39:58;;;;;;;;;;;;;;;17.76;48.29;99664.53;4995840;28;1342;-49
2022/12/12 04:42:24;;;;;;;;;;;;;;;16.95;48.56;99656.03;4997254;28;1121;-52
2022/12/12 04:44:51;;;;;;;;;;;;;;;16.86;47.15;99655.91;4997153;28;1338;-57
2022/12/12 04:47:16;;;;;;;;;;;;;;;17.49;48.14;99665.41;4979987;28;1184;-52
2022/12/12 04:49:42;;;;;;;;;;;;;;;16.85;48.23;99655.06;4979756;28;1985;-50
2022/12/12 04:52:08;;;;;;;;;;;;;;;17.62;48.32;99659.06;4979558;28;1189;-50
2022/12/12 04:54:54;;;;;;;;;;;;;;;17.52;48.41;99664.78;4980128;28;1164;-56
2022/12/12 04:57:20;;;;;;;;;;;;;;;17.02;48.05;99679.22;4986434;28;2039;-52
2022/12/12 04:59:46;;;;;;;;;;;;;;;16.79;46.91;99697.47;4979428;28;2688;-51
2022/12/12 05:02:32;;;;;;;;;;;;;;;16.74;46.32;99712.06;4979797;28;1093;-52
2022/12/12 05:04:58;;;;;;;;;;;;;;;17.38;47.75;99730.75;4979851;28;1132;-49
2022/12/12 05:07:37;;;;;;;;;;;;;;;16.80;47.67;99731.22;4979280;28;1156;-47
2022/12/12 05:10:04;;;;;;;;;;;;;;;17.44;47.76;99735.00;4996527;28;1906;-49
2022/12/12 05:12:29;;;;;;;;;;;;;;;17.00;48.16;99741.03;4996949;28;1160;-48
2022/12/12 05:14:54;;;;;;;;;;;;;;;16.89;47.76;99735.75;4967623;28;1121;-47
2022/12/12 05:17:23;;;;;;;;;;;;;;;17.70;48.20;99747.44;4996077;28;1165;-50
2022/12/12 05:19:49;;;;;;;;;;;;;;;17.02;48.00;99742.38;4980339;28;1271;-53
2022/12/12 05:22:14;;;;;;;;;;;;;;;16.82;46.80;99745.47;4997562;28;1144;-50
2022/12/12 05:24:40;;;;;;;;;;;;;;;16.61;46.34;99740.31;4996666;28;1125;-51
2022/12/12 05:27:05;;;;;;;;;;;;;;;17.21;47.52;99755.25;4997028;28;1145;-50
2022/12/12 05:29:30;;;;;;;;;;;;;;;16.71;47.51;99751.09;4990686;28;1910;-53
2022/12/12 05:31:56;;;;;;;;;;;;;;;17.68;47.85;99753.22;4989873;28;1101;-53
2022/12/12 05:34:22;;;;;;;;;;;;;;;17.16;48.06;99741.59;4996552;28;1164;-50
2022/12/12 05:36:48;;;;;;;;;;;;;;;16.83;47.52;99741.59;4997015;28;1225;-49
2022/12/12 05:39:14;;;;;;;;;;;;;;;16.83;47.40;99749.81;4996693;28;1240;-50
2022/12/12 05:41:39;;;;;;;;;;;;;;;17.36;48.22;99757.72;4996886;28;1215;-45
2022/12/12 05:44:04;;;;;;;;;;;;;;;16.87;47.75;99762.66;4996914;28;1136;-51
2022/12/12 05:46:30;;;;;;;;;;;;;;;17.58;47.95;99769.94;4996630;28;1129;-51
2022/12/12 05:48:55;;;;;;;;;;;;;;;17.07;47.91;99772.50;4997033;28;1983;-48
2022/12/12 05:51:21;;;;;;;;;;;;;;;17.67;48.29;99775.53;4997364;28;1129;-50
2022/12/12 05:53:46;;;;;;;;;;;;;;;18.17;47.72;99761.06;4996835;28;1164;-48
2022/12/12 05:56:12;;;;;;;;;;;;;;;17.31;48.44;99766.06;4996761;28;1251;-48
2022/12/12 05:58:38;;;;;;;;;;;;;;;16.91;47.69;99761.00;4996553;28;1160;-50
2022/12/12 06:01:04;;;;;;;;;;;;;;;17.58;48.22;99772.69;4996732;28;1176;-51
2022/12/12 06:03:29;;;;;;;;;;;;;;;17.01;47.88;99765.50;4996488;28;1286;-52
2022/12/12 06:05:55;;;;;;;;;;;;;;;16.82;46.88;99761.94;4996603;28;1211;-51
2022/12/12 06:08:20;;;;;;;;;;;;;;;17.54;47.54;99755.19;4996921;28;1230;-48
2022/12/12 06:10:45;;;;;;;;;;;;;;;16.97;47.79;99760.88;4996395;28;1981;-50
2022/12/12 06:13:11;;;;;;;;;;;;;;;16.79;47.41;99773.50;4996517;28;1116;-48
2022/12/12 06:15:40;;;;;;;;;;;;;;;17.30;47.94;99771.84;4982919;28;1152;-53
2022/12/12 06:18:06;;;;;;;;;;;;;;;16.85;47.32;99775.88;4996964;28;1219;-54
2022/12/12 06:20:31;;;;;;;;;;;;;;;18.06;47.63;99797.06;4996262;28;1144;-49
2022/12/12 06:22:57;;;;;;;;;;;;;;;17.22;48.24;99803.56;4996307;28;1251;-52
2022/12/12 06:25:22;;;;;;;;;;;;;;;16.95;47.10;99810.63;4996350;28;1089;-50
2022/12/12 06:27:47;;;;;;;;;;;;;;;17.90;47.40;99823.22;4996628;28;1149;-50
2022/12/12 06:30:13;;;;;;;;;;;;;;;17.68;47.92;99816.47;4996612;28;1910;-51
2022/12/12 06:32:38;;;;;;;;;;;;;;;17.23;49.16;99821.69;4996375;28;1148;-51
2022/12/12 06:35:04;;;;;;;;;;;;;;;16.94;49.89;99830.94;4994600;28;1201;-57
2022/12/12 06:37:30;;;;;;;;;;;;;;;16.70;50.05;99828.28;4999541;28;1132;-51
2022/12/12 06:39:55;;;;;;;;;;;;;;;16.58;50.33;99835.03;4999423;28;1168;-50
2022/12/12 06:42:20;;;;;;;;;;;;;;;16.48;50.52;99834.34;4997444;28;947;-54
2022/12/12 06:44:46;;;;;;;;;;;;;;;16.32;50.90;99834.56;4999451;28;1164;-52
2022/12/12 06:47:11;;;;;;;;;;;;;;;16.20;51.13;99832.25;4999324;28;1164;-52
2022/12/12 06:49:37;;;;;;;;;;;;;;;16.05;51.43;99844.22;4999236;28;1969;-51
2022/12/12 06:52:02;;;;;;;;;;;;;;;15.95;51.72;99855.31;4999531;28;1112;-54
2022/12/12 06:54:28;;;;;;;;;;;;;;;15.86;51.59;99849.63;5000282;28;1140;-51
2022/12/12 06:56:53;;;;;;;;;;;;;;;15.77;52.12;99856.00;4999446;28;1160;-50
2022/12/12 06:59:19;;;;;;;;;;;;;;;15.68;52.11;99850.34;4999514;28;1125;-47
2022/12/12 07:01:44;;;;;;;;;;;;;;;15.56;52.14;99861.72;4999391;28;1450;-53
2022/12/12 07:04:10;;;;;;;;;;;;;;;15.54;52.22;99859.28;4999636;28;1109;-50
2022/12/12 07:06:36;;;;;;;;;;;;;;;15.44;52.31;99858.56;4999451;28;1204;-49
2022/12/12 07:09:02;;;;;;;;;;;;;;;15.38;52.40;99864.06;4999418;28;1898;-48
2022/12/12 07:11:27;;;;;;;;;;;;;;;15.93;51.51;99865.75;4999053;28;1157;-49
2022/12/12 07:13:53;;;;;;;;;;;;;;;17.26;48.92;99860.38;4999581;28;1140;-47
2022/12/12 07:16:18;;;;;;;;;;;;;;;16.29;51.27;99870.81;4999376;28;1177;-45
2022/12/12 07:18:44;;;;;;;;;;;;;;;15.92;52.19;99883.28;4999161;28;1188;-55
2022/12/12 07:21:10;;;;;;;;;;;;;;;15.73;52.29;99881.28;4981419;28;1271;-51
2022/12/12 07:23:36;;;;;;;;;;;;;;;15.59;52.55;99880.31;4981924;28;1117;-48
2022/12/12 07:26:02;;;;;;;;;;;;;;;16.71;50.55;99880.13;4995517;28;1089;-46
2022/12/12 07:28:27;;;;;;;;;;;;;;;16.63;50.28;99874.50;4979415;28;1184;-49
2022/12/12 07:30:53;;;;;;;;;;;;;;;16.04;52.02;99870.00;4994794;28;1922;-46
2022/12/12 07:33:18;;;;;;;;;;;;;;;15.81;52.21;99877.13;4998540;28;1211;-50
2022/12/12 07:35:44;;;;;;;;;;;;;;;15.71;52.71;99877.19;4998784;28;1168;-48
2022/12/12 07:38:09;;;;;;;;;;;;;;;15.57;52.77;99877.88;4998582;28;1172;-44
2022/12/12 07:40:35;;;;;;;;;;;;;;;15.44;52.90;99878.53;4998824;28;1117;-48
2022/12/12 07:43:00;;;;;;;;;;;;;;;16.29;51.56;99872.75;4998391;28;1244;-46
2022/12/12 07:45:26;;;;;;;;;;;;;;;17.31;48.91;99866.91;4998623;28;1133;-52
2022/12/12 07:47:51;;;;;;;;;;;;;;;16.30;51.18;99872.47;4998083;28;1160;-51
2022/12/12 07:50:17;;;;;;;;;;;;;;;15.94;52.11;99875.63;4998867;28;1923;-51
2022/12/12 07:52:42;;;;;;;;;;;;;;;15.73;52.43;99881.28;4998480;28;1128;-50
2022/12/12 07:55:08;;;;;;;;;;;;;;;15.63;52.73;99881.38;4998122;28;1211;-45
2022/12/12 07:57:33;;;;;;;;;;;;;;;15.50;52.83;99893.84;4998790;28;1211;-49
2022/12/12 07:59:59;;;;;;;;;;;;;;;16.86;49.89;99890.09;4998068;28;1140;-48
2022/12/12 08:02:24;;;;;;;;;;;;;;;16.74;50.11;99886.97;4998195;28;1085;-50
2022/12/12 08:04:50;;;;;;;;;;;;;;;16.08;51.96;99895.72;4998339;28;1192;-50
2022/12/12 08:07:15;;;;;;;;;;;;;;;15.84;52.53;99897.66;4998227;28;998;-48
2022/12/12 08:09:41;;;;;;;;;;;;;;;15.69;52.48;99879.41;4998450;28;1926;-47
2022/12/12 08:12:06;;;;;;;;;;;;;;;15.57;52.76;99893.47;4997902;28;1122;-47
2022/12/12 08:14:32;;;;;;;;;;;;;;;15.45;53.22;99890.31;4997434;28;1227;-45
2022/12/12 08:16:57;;;;;;;;;;;;;;;17.01;49.55;99891.81;4998236;28;1125;-49
2022/12/12 08:19:23;;;;;;;;;;;;;;;16.48;50.66;99900.22;4984683;28;1120;-47
2022/12/12 08:21:48;;;;;;;;;;;;;;;16.01;52.09;99914.47;4998298;28;1153;-51
2022/12/12 08:24:14;;;;;;;;;;;;;;;15.76;52.50;99917.44;4997465;28;1148;-48
2022/12/12 08:26:39;;;;;;;;;;;;;;;15.60;52.85;99917.59;4998118;28;1200;-46
2022/12/12 08:29:05;;;;;;;;;;;;;;;15.50;52.99;99925.88;4997966;28;1979;-52
2022/12/12 08:31:30;;;;;;;;;;;;;;;15.39;53.18;99923.25;4998019;28;1235;-47
2022/12/12 08:33:56;;;;;;;;;;;;;;;16.71;50.31;99910.31;4997892;28;1333;-45
2022/12/12 08:36:31;;;;;;;;;;;;;;;17.10;49.07;99927.66;4997123;28;1179;-48
2022/12/12 08:38:57;;;;;;;;;;;;;;;16.16;51.63;99926.38;4997615;28;1153;-49
2022/12/12 08:41:22;;;;;;;;;;;;;;;15.86;52.26;99920.09;4997928;28;1176;-48
2022/12/12 08:43:48;;;;;;;;;;;;;;;15.66;52.74;99921.09;4997562;28;1117;-50
2022/12/12 08:46:13;;;;;;;;;;;;;;;15.55;52.83;99923.09;4997673;28;1191;-51
2022/12/12 08:48:39;;;;;;;;;;;;;;;16.59;50.65;99912.69;4997388;28;1148;-45
2022/12/12 08:51:04;;;;;;;;;;;;;;;16.71;50.01;99915.81;4997350;28;1902;-44
2022/12/12 08:53:30;;;;;;;;;;;;;;;16.06;51.96;99919.06;4997902;28;1153;-46
2022/12/12 08:55:55;;;;;;;;;;;;;;;15.77;52.70;99924.53;4997620;28;1152;-49
2022/12/12 08:58:21;;;;;;;;;;;;;;;15.60;52.74;99925.81;4997564;28;1204;-49
2022/12/12 09:00:46;;;;;;;;;;;;;;;15.54;52.75;99924.22;4985965;28;1335;-51
2022/12/12 09:03:12;;;;;;;;;;;;;;;16.49;50.83;99921.06;4997425;28;1211;-49
2022/12/12 09:05:41;;;;;;;;;;;;;;;16.82;49.77;99916.50;4996600;28;1117;-48
2022/12/12 09:08:06;;;;;;;;;;;;;;;16.06;51.64;99930.03;4997411;28;1145;-48
2022/12/12 09:10:32;;;;;;;;;;;;;;;15.78;52.44;99931.66;4996729;28;1973;-50
2022/12/12 09:12:57;;;;;;;;;;;;;;;15.62;52.87;99925.53;4996974;28;867;-50
2022/12/12 09:15:23;;;;;;;;;;;;;;;15.46;52.93;99930.28;4996534;28;1520;-47
2022/12/12 09:17:49;;;;;;;;;;;;;;;16.98;49.64;99922.59;4997323;28;1129;-44
2022/12/12 09:20:14;;;;;;;;;;;;;;;16.63;50.33;99919.22;4996871;28;1160;-48
2022/12/12 09:22:40;;;;;;;;;;;;;;;16.02;52.08;99924.34;4996681;28;1106;-49
2022/12/12 09:25:05;;;;;;;;;;;;;;;15.80;52.64;99930.31;4996386;28;1133;-48
2022/12/12 09:27:31;;;;;;;;;;;;;;;15.65;52.72;99933.16;4997219;28;1204;-52
2022/12/12 09:29:56;;;;;;;;;;;;;;;15.52;52.70;99918.22;4997113;28;1906;-49
2022/12/12 09:32:22;;;;;;;;;;;;;;;16.68;50.58;99930.13;4997383;28;1145;-50
2022/12/12 09:34:47;;;;;;;;;;;;;;;16.38;50.86;99923.94;4997214;28;1144;-49
2022/12/12 09:37:13;;;;;;;;;;;;;;;15.90;51.99;99927.47;4995872;28;1179;-49
2022/12/12 09:39:39;;;;;;;;;;;;;;;15.66;52.78;99930.13;4997051;28;1156;-50
2022/12/12 09:42:23;;;;;;;;;;;;;;;15.47;52.95;99940.97;4987153;28;1236;-49
2022/12/12 09:44:49;;;;;;;;;;;;;;;16.03;52.08;99928.72;4995600;28;1141;-51
2022/12/12 09:47:19;;;;;;;;;;;;;;;17.05;49.35;99936.78;4979206;28;1225;-50
2022/12/12 09:49:49;;;;;;;;;;;;;;;16.03;51.97;99945.19;4979164;28;1890;-47
2022/12/12 09:52:15;;;;;;;;;;;;;;;15.74;52.56;99943.22;4979411;28;1201;-48
2022/12/12 09:54:40;;;;;;;;;;;;;;;16.24;51.77;99945.78;4979655;28;1106;-45
2022/12/12 09:57:20;;;;;;;;;;;;;;;16.90;49.65;99937.00;4996282;28;1223;-51
2022/12/12 09:59:55;;;;;;;;;;;;;;;16.09;51.99;99943.19;4979969;28;1117;-46
2022/12/12 10:02:26;;;;;;;;;;;;;;;15.78;52.71;99951.69;4996464;28;1117;-48
2022/12/12 10:04:58;;;;;;;;;;;;;;;15.58;52.85;99947.19;4979144;28;1149;-50
2022/12/12 10:07:42;;;;;;;;;;;;;;;15.45;53.15;99950.59;4995884;28;1168;-48
2022/12/12 10:10:21;;;;;;;;;;;;;;;16.39;51.14;99941.22;4984140;28;1898;-46
2022/12/12 10:12:47;;;;;;;;;;;;;;;16.70;50.11;99946.31;4982943;28;1133;-46
2022/12/12 10:15:22;;;;;;;;;;;;;;;15.98;52.28;99942.47;5000763;28;1137;-47
2022/12/12 10:17:47;;;;;;;;;;;;;;;15.73;52.65;99938.03;5000791;28;1180;-51
2022/12/12 10:20:14;;;;;;;;;;;;;;;15.59;52.72;99950.75;5000477;28;1176;-55
2022/12/12 10:22:42;;;;;;;;;;;;;;;15.45;52.85;99947.88;4982924;28;1192;-52
2022/12/12 10:25:07;;;;;;;;;;;;;;;16.26;51.52;99942.72;4978350;28;1145;-52
2022/12/12 10:27:33;;;;;;;;;;;;;;;17.19;49.03;99936.84;4997590;28;1163;-52
2022/12/12 10:29:59;;;;;;;;;;;;;;;16.21;51.44;99929.06;4963748;28;1903;-52
2022/12/12 10:32:43;;;;;;;;;;;;;;;15.85;52.57;99923.94;4994575;28;1121;-52
2022/12/12 10:35:27;;;;;;;;;;;;;;;15.67;52.79;99945.47;5000306;28;1156;-50
2022/12/12 10:38:07;;;;;;;;;;;;;;;16.13;51.92;99936.03;4999338;28;1247;-51
2022/12/12 10:40:42;;;;;;;;;;;;;;;17.04;49.64;99932.41;4982970;28;1201;-47
2022/12/12 10:43:09;;;;;;;;;;;;;;;16.10;51.87;99933.03;4999755;28;1227;-47
2022/12/12 10:45:54;;;;;;;;;;;;;;;15.82;52.42;99935.50;4978419;28;1200;-48
2022/12/12 10:48:19;;;;;;;;;;;;;;;15.65;52.99;99944.94;4999965;28;1129;-49
2022/12/12 10:50:46;;;;;;;;;;;;;;;15.56;52.91;99938.44;4998260;28;1983;-48
2022/12/12 10:53:12;;;;;;;;;;;;;;;16.42;51.17;99940.63;4982245;28;1197;-48
2022/12/12 10:55:43;;;;;;;;;;;;;;;16.95;49.77;99934.19;4999524;28;1125;-45
2022/12/12 10:58:08;;;;;;;;;;;;;;;16.07;52.07;99931.69;4981948;28;995;-49
2022/12/12 11:00:35;;;;;;;;;;;;;;;15.84;52.47;99933.31;4999912;28;1144;-50
2022/12/12 11:03:20;;;;;;;;;;;;;;;15.64;52.82;99937.84;4999841;28;946;-46
2022/12/12 11:05:46;;;;;;;;;;;;;;;15.51;53.06;99938.47;4999232;28;1648;-50
2022/12/12 11:08:19;;;;;;;;;;;;;;;17.00;50.04;99933.28;4981648;28;1122;-48
2022/12/12 11:10:44;;;;;;;;;;;;;;;16.47;50.81;99926.03;4999540;28;1979;-48
2022/12/12 11:13:10;;;;;;;;;;;;;;;15.96;52.30;99927.41;4981994;28;1201;-50
2022/12/12 11:15:44;;;;;;;;;;;;;;;15.73;52.95;99914.16;4999279;28;1127;-47
2022/12/12 11:18:12;;;;;;;;;;;;;;;15.62;53.02;99911.81;4997458;28;1618;-48
2022/12/12 11:20:42;;;;;;;;;;;;;;;16.34;51.60;99917.41;4990247;28;1377;-50
2022/12/12 11:23:12;;;;;;;;;;;;;;;16.77;50.34;99916.56;4981398;28;1152;-51
2022/12/12 11:25:38;;;;;;;;;;;;;;;16.08;52.01;99925.91;4981743;28;1125;-46
2022/12/12 11:28:03;;;;;;;;;;;;;;;15.78;52.47;99927.03;4996803;28;1369;-50
2022/12/12 11:30:36;;;;;;;;;;;;;;;15.63;52.98;99925.22;4979611;28;1947;-51
2022/12/12 11:33:02;;;;;;;;;;;;;;;15.81;52.70;99925.63;4995943;28;1321;-46
2022/12/12 11:35:35;;;;;;;;;;;;;;;17.30;49.15;99925.72;4981981;28;995;-50
2022/12/12 11:38:04;;;;;;;;;;;;;;;16.37;51.54;99935.22;4995511;28;1186;-51
2022/12/12 11:40:31;;;;;;;;;;;;;;;15.96;52.31;99933.69;4998752;28;998;-51
2022/12/12 11:43:15;;;;;;;;;;;;;;;15.72;52.82;99934.47;4999375;28;1305;-48
2022/12/12 11:45:40;;;;;;;;;;;;;;;15.56;53.25;99947.47;4994329;28;1170;-48
2022/12/12 11:48:24;;;;;;;;;;;;;;;15.48;53.19;99944.53;4996691;28;1623;-49
2022/12/12 11:50:50;;;;;;;;;;;;;;;17.06;49.89;99941.16;4997740;28;1906;-50
2022/12/12 11:53:15;;;;;;;;;;;;;;;16.42;51.37;99954.34;4995686;28;1396;-46
2022/12/12 11:55:48;;;;;;;;;;;;;;;15.91;52.65;99953.78;4998645;28;1481;-44
2022/12/12 11:58:14;;;;;;;;;;;;;;;15.68;52.95;99957.25;4981316;28;1097;-44
2022/12/12 12:00:59;;;;;;;;;;;;;;;15.55;53.45;99961.47;4998255;28;1105;-50
2022/12/12 12:03:33;;;;;;;;;;;;;;;15.51;53.31;99960.41;4998399;28;911;-48
2022/12/12 12:06:17;;;;;;;;;;;;;;;17.17;49.47;99961.06;4981375;28;1105;-45
2022/12/12 12:09:05;;;;;;;;;;;;;;;16.31;51.41;99961.06;4998810;28;1113;-43
2022/12/12 12:11:45;;;;;;;;;;;;;;;15.83;52.80;99957.13;4997898;28;1117;-47
2022/12/12 12:14:14;;;;;;;;;;;;;;;15.67;53.07;99963.81;4998171;28;1223;-47
2022/12/12 12:16:45;;;;;;;;;;;;;;;16.84;50.62;99973.84;4998650;28;1117;-48
2022/12/12 12:19:46;;;;;;;;;;;;;;;16.55;51.09;99969.25;4980919;28;1094;-47
2022/12/12 12:22:16;;;;;;;;;;;;;;;15.96;52.37;99961.13;4938065;29;1149;-48
2022/12/12 12:25:00;;;;;;;;;;;;;;;15.73;52.92;99971.72;4977118;28;1289;-49
2022/12/12 12:27:36;;;;;;;;;;;;;;;15.60;53.28;99968.81;4980881;28;871;-45
2022/12/12 12:30:11;;;;;;;;;;;;;;;15.66;53.29;99967.69;4998004;28;1920;-50
2022/12/12 12:32:40;;;;;;;;;;;;;;;17.32;49.13;99961.94;4997397;28;1180;-47
2022/12/12 12:35:15;;;;;;;;;;;;;;;16.46;51.44;99973.78;4980384;28;1125;-49
2022/12/12 12:37:43;;;;;;;;;;;;;;;15.99;52.72;99974.28;4997613;28;1179;-50
2022/12/12 12:40:27;;;;;;;;;;;;;;;15.71;53.16;99973.94;4997937;28;1254;-49
2022/12/12 12:42:53;;;;;;;;;;;;;;;15.57;53.16;99979.25;4997565;28;1176;-49
2022/12/12 12:45:24;;;;;;;;;;;;;;;15.45;53.52;99975.25;4998359;28;1129;-47
2022/12/12 12:48:03;;;;;;;;;;;;;;;16.51;51.38;99979.19;4996070;28;1202;-45
2022/12/12 12:50:29;;;;;;;;;;;;;;;16.87;50.39;99990.56;4975924;28;1907;-48
2022/12/12 12:52:57;;;;;;;;;;;;;;;16.04;52.28;99976.94;4997409;28;1244;-46
2022/12/12 12:55:26;;;;;;;;;;;;;;;15.82;52.90;99980.19;4996551;28;1256;-49
2022/12/12 12:57:51;;;;;;;;;;;;;;;15.62;53.49;99983.88;4977430;28;1262;-47
2022/12/12 13:00:17;;;;;;;;;;;;;;;15.50;53.76;99978.78;4977920;28;1282;-46
2022/12/12 13:02:48;;;;;;;;;;;;;;;16.21;52.23;99982.00;4989432;28;816;-46
2022/12/12 13:05:33;;;;;;;;;;;;;;;17.21;49.76;99972.28;4996496;28;998;-46
2022/12/12 13:08:12;;;;;;;;;;;;;;;16.17;52.18;99974.63;4997100;28;1199;-49
2022/12/12 13:10:40;;;;;;;;;;;;;;;15.82;53.16;99966.50;4979833;28;1977;-45
2022/12/12 13:13:21;;;;;;;;;;;;;;;15.63;53.67;99973.75;4996402;28;1141;-49
2022/12/12 13:15:48;;;;;;;;;;;;;;;15.49;53.79;99962.63;4979601;28;1098;-48
2022/12/12 13:18:14;;;;;;;;;;;;;;;16.63;51.35;99974.13;4978842;28;1484;-51
2022/12/12 13:20:41;;;;;;;;;;;;;;;16.56;51.45;99968.16;4997320;28;1157;-48